Saturday, July 21, 2018, 3:22 PM EDT
Back to Local

KCON, Concord, Concord Municipal Airport

Location: Concord, NH, United States Lat: 43.195
Local Time: 3:22 PM EDT (19:22 GMT) Lon: -71.501
Time Zone: US/Eastern Elev: 344 ft

Show me the last for .
Show Decoded

2018-07-21 14:51 METAR KCON 211851Z AUTO 10SM CLR 26/12 A3013 RMK AO2 SLP204 T02610117 =
2018-07-21 13:51 METAR KCON 211751Z AUTO VRB06KT 10SM CLR 26/13 A3014 RMK AO2 SLP207 T02610133
                 10267 20156 58009 =
2018-07-21 12:51 METAR KCON 211651Z AUTO 10SM CLR 25/12 A3016 RMK AO2 SLP211 T02500122 =
2018-07-21 11:51 METAR KCON 211551Z AUTO 17005KT 10SM BKN036 24/14 A3017 RMK AO2 SLP214 T02390144
                 =
2018-07-21 10:51 METAR KCON 211451Z AUTO VRB03KT 10SM FEW026 23/16 A3017 RMK AO2 SLP216 T02280156
                 58002 =
2018-07-21 10:01 METAR KCON 211401Z AUTO 00000KT 10SM SCT010 21/16 A3018 RMK AO2 T02060161 =
2018-07-21 09:51 METAR KCON 211351Z AUTO VRB04KT 10SM BKN010 19/16 A3018 RMK AO2 CIG 009V012
                 SLP221 T01940161 =
2018-07-21 08:51 METAR KCON 211251Z AUTO 00000KT 9SM OVC005 17/16 A3018 RMK AO2 CIG 003V008
                 SLP220 T01720156 =
2018-07-21 08:30 METAR KCON 211230Z AUTO 00000KT 4SM BR OVC003 16/16 A3018 RMK AO2 T01610156 =
2018-07-21 08:21 METAR KCON 211221Z AUTO 00000KT 2SM BR OVC003 16/16 A3018 RMK AO2 VIS 1 1/2V3
                 T01610156 =
2018-07-21 08:16 METAR KCON 211216Z AUTO 00000KT 1 1/2SM BR OVC002 16/16 A3018 RMK AO2 T01610156
                 =
2018-07-21 08:08 METAR KCON 211208Z AUTO 00000KT 3/4SM BR OVC002 16/15 A3018 RMK AO2 T01610150 =
2018-07-21 07:51 METAR KCON 211151Z AUTO 00000KT 1/2SM FG OVC003 16/15 A3018 RMK AO2 SLP219
                 T01560150 10156 20117 50002 =
2018-07-21 07:44 METAR KCON 211144Z AUTO 00000KT 3/4SM BR OVC003 15/14 A3018 RMK AO2 T01500144 =
2018-07-21 07:40 METAR KCON 211140Z AUTO 00000KT 1 1/2SM BR OVC003 15/14 A3017 RMK AO2 T01500144
                 =
2018-07-21 07:32 METAR KCON 211132Z AUTO 00000KT 3SM BR OVC003 15/14 A3018 RMK AO2 T01500139 =
2018-07-21 07:20 METAR KCON 211120Z AUTO 00000KT 1 3/4SM BR OVC003 14/14 A3018 RMK AO2 T01440139
                 =
2018-07-21 07:00 METAR KCON 211100Z AUTO 00000KT 10SM OVC004 14/13 A3018 RMK AO2 T01440128 =
2018-07-21 06:51 METAR KCON 211051Z AUTO 00000KT 10SM OVC005 14/13 A3018 RMK AO2 SLP221 T01440128
                 =
2018-07-21 06:21 METAR KCON 211021Z AUTO 06003KT 10SM BKN008 13/12 A3018 RMK AO2 T01330117 =
2018-07-21 06:12 METAR KCON 211012Z AUTO 07003KT 10SM SCT008 12/11 A3017 RMK AO2 T01220111 =
2018-07-21 05:51 METAR KCON 210951Z AUTO 00000KT 10SM CLR 12/11 A3018 RMK AO2 SLP219 T01220111 =
2018-07-21 04:51 METAR KCON 210851Z AUTO 00000KT 10SM CLR 12/11 A3017 RMK AO2 SLP216 T01220106
                 53004 =
2018-07-21 03:51 METAR KCON 210751Z AUTO 00000KT 10SM CLR 12/11 A3016 RMK AO2 SLP212 T01220111 =
2018-07-21 02:51 METAR KCON 210651Z AUTO 00000KT 10SM CLR 14/12 A3016 RMK AO2 SLP210 T01390122 =
2018-07-21 01:51 METAR KCON 210551Z AUTO 08004KT 10SM CLR 14/13 A3016 RMK AO2 SLP212 T01440128
                 10239 20139 58002 =
2018-07-21 00:51 METAR KCON 210451Z AUTO 00000KT 10SM CLR 16/13 A3016 RMK AO2 SLP213 T01610128
                 403000106 =
2018-07-20 23:51 METAR KCON 210351Z AUTO 00000KT 10SM CLR 18/13 A3016 RMK AO2 SLP213 T01780133 =
2018-07-20 22:51 METAR KCON 210251Z AUTO 12004KT 10SM CLR 18/14 A3017 RMK AO2 SLP213 T01830139
                 50007 =
2018-07-20 21:51 METAR KCON 210151Z AUTO 10005KT 10SM CLR 19/14 A3017 RMK AO2 SLP215 T01940144 =
2018-07-20 20:51 METAR KCON 210051Z AUTO 11006KT 10SM CLR 22/14 A3016 RMK AO2 SLP211 T02170144 =
2018-07-20 19:51 METAR KCON 202351Z AUTO 10005KT 10SM CLR 24/14 A3014 RMK AO2 SLP206 T02390139
                 10300 20239 52005 =
2018-07-20 18:51 METAR KCON 202251Z AUTO 13008KT 10SM CLR 26/14 A3013 RMK AO2 SLP204 T02560144 =
2018-07-20 17:51 METAR KCON 202151Z AUTO 14008G15KT 10SM CLR 27/15 A3013 RMK AO2 SLP204 T02720150
                 =
2018-07-20 16:51 METAR KCON 202051Z AUTO 13008KT 100V170 10SM CLR 29/15 A3013 RMK AO2 SLP201
                 T02890150 56009 =
2018-07-20 15:51 METAR KCON 201951Z AUTO 16008KT 10SM CLR 29/13 A3013 RMK AO2 SLP203 T02890128 =

Support USWX by starting your Amazon purchase here.